sensor_id;sensor_type;location;lat;lon;timestamp;P1;durP1;ratioP1;P2;durP2;ratioP2
72373;SDS011;60349;64.132;-21.820;2023-05-20T00:01:36;29.25;;;14.07;;
72373;SDS011;60349;64.132;-21.820;2023-05-20T00:04:03;25.10;;;12.25;;
72373;SDS011;60349;64.132;-21.820;2023-05-20T00:06:29;26.27;;;13.13;;
72373;SDS011;60349;64.132;-21.820;2023-05-20T00:08:56;24.70;;;10.40;;
72373;SDS011;60349;64.132;-21.820;2023-05-20T00:11:24;24.00;;;10.45;;
72373;SDS011;60349;64.132;-21.820;2023-05-20T00:13:50;27.08;;;10.23;;
72373;SDS011;60349;64.132;-21.820;2023-05-20T00:16:16;21.48;;;11.02;;
72373;SDS011;60349;64.132;-21.820;2023-05-20T00:18:42;22.48;;;11.80;;
72373;SDS011;60349;64.132;-21.820;2023-05-20T00:21:08;23.05;;;11.40;;
72373;SDS011;60349;64.132;-21.820;2023-05-20T00:23:35;24.90;;;11.73;;
72373;SDS011;60349;64.132;-21.820;2023-05-20T00:26:01;25.95;;;11.20;;
72373;SDS011;60349;64.132;-21.820;2023-05-20T00:28:27;29.10;;;10.85;;
72373;SDS011;60349;64.132;-21.820;2023-05-20T00:30:54;21.00;;;9.50;;
72373;SDS011;60349;64.132;-21.820;2023-05-20T00:33:20;20.23;;;8.90;;
72373;SDS011;60349;64.132;-21.820;2023-05-20T00:35:46;19.38;;;8.43;;
72373;SDS011;60349;64.132;-21.820;2023-05-20T00:38:12;21.25;;;8.23;;
72373;SDS011;60349;64.132;-21.820;2023-05-20T00:40:38;19.35;;;8.65;;
72373;SDS011;60349;64.132;-21.820;2023-05-20T00:43:04;16.15;;;7.50;;
72373;SDS011;60349;64.132;-21.820;2023-05-20T00:45:31;18.23;;;8.50;;
72373;SDS011;60349;64.132;-21.820;2023-05-20T00:47:57;20.50;;;7.32;;
72373;SDS011;60349;64.132;-21.820;2023-05-20T00:50:26;20.75;;;7.28;;
72373;SDS011;60349;64.132;-21.820;2023-05-20T00:52:52;18.08;;;6.30;;
72373;SDS011;60349;64.132;-21.820;2023-05-20T00:55:19;19.00;;;6.75;;
72373;SDS011;60349;64.132;-21.820;2023-05-20T00:57:46;21.65;;;5.90;;
72373;SDS011;60349;64.132;-21.820;2023-05-20T01:00:13;16.30;;;5.53;;
72373;SDS011;60349;64.132;-21.820;2023-05-20T01:02:39;18.30;;;5.30;;
72373;SDS011;60349;64.132;-21.820;2023-05-20T01:05:05;15.15;;;3.85;;
72373;SDS011;60349;64.132;-21.820;2023-05-20T01:07:31;14.43;;;3.70;;
72373;SDS011;60349;64.132;-21.820;2023-05-20T01:09:58;11.00;;;3.38;;
72373;SDS011;60349;64.132;-21.820;2023-05-20T01:12:25;18.98;;;4.13;;
72373;SDS011;60349;64.132;-21.820;2023-05-20T01:14:55;14.32;;;3.03;;
72373;SDS011;60349;64.132;-21.820;2023-05-20T01:17:24;15.02;;;3.50;;
72373;SDS011;60349;64.132;-21.820;2023-05-20T01:19:51;17.63;;;4.20;;
72373;SDS011;60349;64.132;-21.820;2023-05-20T01:22:23;12.30;;;2.53;;
72373;SDS011;60349;64.132;-21.820;2023-05-20T01:24:49;12.43;;;2.50;;
72373;SDS011;60349;64.132;-21.820;2023-05-20T01:27:19;12.65;;;2.53;;
72373;SDS011;60349;64.132;-21.820;2023-05-20T01:29:46;11.30;;;2.50;;
72373;SDS011;60349;64.132;-21.820;2023-05-20T01:32:18;8.68;;;2.35;;
72373;SDS011;60349;64.132;-21.820;2023-05-20T01:34:44;9.63;;;1.63;;
72373;SDS011;60349;64.132;-21.820;2023-05-20T01:37:12;7.80;;;1.25;;
72373;SDS011;60349;64.132;-21.820;2023-05-20T01:39:39;10.43;;;1.00;;
72373;SDS011;60349;64.132;-21.820;2023-05-20T01:42:06;7.70;;;1.23;;
72373;SDS011;60349;64.132;-21.820;2023-05-20T01:44:32;6.88;;;0.88;;
72373;SDS011;60349;64.132;-21.820;2023-05-20T01:46:59;13.68;;;1.75;;
72373;SDS011;60349;64.132;-21.820;2023-05-20T01:49:25;11.38;;;1.83;;
72373;SDS011;60349;64.132;-21.820;2023-05-20T01:51:51;10.27;;;1.08;;
72373;SDS011;60349;64.132;-21.820;2023-05-20T01:54:17;12.00;;;1.33;;
72373;SDS011;60349;64.132;-21.820;2023-05-20T01:56:44;11.10;;;0.98;;
72373;SDS011;60349;64.132;-21.820;2023-05-20T01:59:11;9.57;;;1.45;;
72373;SDS011;60349;64.132;-21.820;2023-05-20T02:01:37;15.57;;;2.53;;
72373;SDS011;60349;64.132;-21.820;2023-05-20T02:04:03;16.25;;;1.90;;
72373;SDS011;60349;64.132;-21.820;2023-05-20T02:06:29;13.35;;;1.42;;
72373;SDS011;60349;64.132;-21.820;2023-05-20T02:08:56;12.52;;;1.42;;
72373;SDS011;60349;64.132;-21.820;2023-05-20T02:11:22;13.13;;;1.85;;
72373;SDS011;60349;64.132;-21.820;2023-05-20T02:13:48;18.75;;;1.83;;
72373;SDS011;60349;64.132;-21.820;2023-05-20T02:16:16;12.40;;;1.67;;
72373;SDS011;60349;64.132;-21.820;2023-05-20T02:18:42;11.65;;;1.67;;
72373;SDS011;60349;64.132;-21.820;2023-05-20T02:21:08;13.73;;;2.05;;
72373;SDS011;60349;64.132;-21.820;2023-05-20T02:23:35;16.15;;;2.25;;
72373;SDS011;60349;64.132;-21.820;2023-05-20T02:26:01;14.18;;;2.00;;
72373;SDS011;60349;64.132;-21.820;2023-05-20T02:28:27;7.88;;;1.02;;
72373;SDS011;60349;64.132;-21.820;2023-05-20T02:30:53;7.22;;;0.90;;
72373;SDS011;60349;64.132;-21.820;2023-05-20T02:33:19;9.77;;;1.13;;
72373;SDS011;60349;64.132;-21.820;2023-05-20T02:35:45;7.35;;;1.10;;
72373;SDS011;60349;64.132;-21.820;2023-05-20T02:38:11;5.75;;;0.65;;
72373;SDS011;60349;64.132;-21.820;2023-05-20T02:40:38;7.85;;;1.30;;
72373;SDS011;60349;64.132;-21.820;2023-05-20T02:43:04;9.98;;;0.80;;
72373;SDS011;60349;64.132;-21.820;2023-05-20T02:45:30;7.88;;;0.80;;
72373;SDS011;60349;64.132;-21.820;2023-05-20T02:47:56;10.75;;;0.85;;
72373;SDS011;60349;64.132;-21.820;2023-05-20T02:50:22;8.23;;;0.30;;
72373;SDS011;60349;64.132;-21.820;2023-05-20T02:52:48;7.13;;;0.57;;
72373;SDS011;60349;64.132;-21.820;2023-05-20T02:55:14;11.55;;;1.30;;
72373;SDS011;60349;64.132;-21.820;2023-05-20T02:57:41;12.23;;;0.70;;
72373;SDS011;60349;64.132;-21.820;2023-05-20T03:00:07;13.30;;;0.70;;
72373;SDS011;60349;64.132;-21.820;2023-05-20T03:02:37;14.35;;;1.23;;
72373;SDS011;60349;64.132;-21.820;2023-05-20T03:05:03;10.15;;;0.90;;
72373;SDS011;60349;64.132;-21.820;2023-05-20T03:07:32;7.45;;;1.13;;
72373;SDS011;60349;64.132;-21.820;2023-05-20T03:09:58;12.50;;;1.30;;
72373;SDS011;60349;64.132;-21.820;2023-05-20T03:12:26;9.93;;;1.63;;
72373;SDS011;60349;64.132;-21.820;2023-05-20T03:14:52;12.00;;;1.00;;
72373;SDS011;60349;64.132;-21.820;2023-05-20T03:17:22;11.32;;;1.20;;
72373;SDS011;60349;64.132;-21.820;2023-05-20T03:19:48;9.18;;;0.75;;
72373;SDS011;60349;64.132;-21.820;2023-05-20T03:22:14;9.18;;;1.48;;
72373;SDS011;60349;64.132;-21.820;2023-05-20T03:24:41;9.73;;;1.23;;
72373;SDS011;60349;64.132;-21.820;2023-05-20T03:27:08;6.70;;;0.50;;
72373;SDS011;60349;64.132;-21.820;2023-05-20T03:29:34;8.70;;;1.13;;
72373;SDS011;60349;64.132;-21.820;2023-05-20T03:32:00;9.00;;;0.80;;
72373;SDS011;60349;64.132;-21.820;2023-05-20T03:34:26;9.18;;;1.33;;
72373;SDS011;60349;64.132;-21.820;2023-05-20T03:36:54;7.40;;;0.93;;
72373;SDS011;60349;64.132;-21.820;2023-05-20T03:39:21;9.95;;;0.95;;
72373;SDS011;60349;64.132;-21.820;2023-05-20T03:41:47;12.02;;;1.38;;
72373;SDS011;60349;64.132;-21.820;2023-05-20T03:44:13;9.30;;;1.23;;
72373;SDS011;60349;64.132;-21.820;2023-05-20T03:46:40;12.35;;;1.25;;
72373;SDS011;60349;64.132;-21.820;2023-05-20T03:49:07;10.35;;;1.33;;
72373;SDS011;60349;64.132;-21.820;2023-05-20T03:51:33;15.80;;;0.88;;
72373;SDS011;60349;64.132;-21.820;2023-05-20T03:53:59;10.48;;;0.88;;
72373;SDS011;60349;64.132;-21.820;2023-05-20T03:56:25;11.68;;;1.27;;
72373;SDS011;60349;64.132;-21.820;2023-05-20T03:58:51;11.27;;;1.20;;
72373;SDS011;60349;64.132;-21.820;2023-05-20T04:01:17;10.27;;;1.63;;
72373;SDS011;60349;64.132;-21.820;2023-05-20T04:03:45;14.20;;;1.35;;
72373;SDS011;60349;64.132;-21.820;2023-05-20T04:06:12;11.68;;;0.88;;
72373;SDS011;60349;64.132;-21.820;2023-05-20T04:08:38;7.88;;;0.75;;
72373;SDS011;60349;64.132;-21.820;2023-05-20T04:11:04;8.73;;;1.05;;
72373;SDS011;60349;64.132;-21.820;2023-05-20T04:13:30;11.05;;;1.00;;
72373;SDS011;60349;64.132;-21.820;2023-05-20T04:15:57;8.27;;;0.40;;
72373;SDS011;60349;64.132;-21.820;2023-05-20T04:18:24;6.80;;;0.70;;
72373;SDS011;60349;64.132;-21.820;2023-05-20T04:20:54;6.03;;;0.40;;
72373;SDS011;60349;64.132;-21.820;2023-05-20T04:23:25;10.90;;;1.10;;
72373;SDS011;60349;64.132;-21.820;2023-05-20T04:25:51;8.80;;;0.50;;
72373;SDS011;60349;64.132;-21.820;2023-05-20T04:28:19;8.23;;;0.77;;
72373;SDS011;60349;64.132;-21.820;2023-05-20T04:30:48;8.73;;;0.75;;
72373;SDS011;60349;64.132;-21.820;2023-05-20T04:33:14;4.97;;;0.75;;
72373;SDS011;60349;64.132;-21.820;2023-05-20T04:35:42;6.45;;;0.68;;
72373;SDS011;60349;64.132;-21.820;2023-05-20T04:38:08;7.82;;;0.60;;
72373;SDS011;60349;64.132;-21.820;2023-05-20T04:40:35;4.85;;;0.68;;
72373;SDS011;60349;64.132;-21.820;2023-05-20T04:43:01;10.85;;;1.08;;
72373;SDS011;60349;64.132;-21.820;2023-05-20T04:45:28;11.27;;;0.65;;
72373;SDS011;60349;64.132;-21.820;2023-05-20T04:47:54;9.02;;;0.88;;
72373;SDS011;60349;64.132;-21.820;2023-05-20T04:50:20;8.65;;;0.70;;
72373;SDS011;60349;64.132;-21.820;2023-05-20T04:52:46;9.80;;;0.95;;
72373;SDS011;60349;64.132;-21.820;2023-05-20T04:55:13;8.77;;;0.60;;
72373;SDS011;60349;64.132;-21.820;2023-05-20T04:57:40;8.45;;;0.65;;
72373;SDS011;60349;64.132;-21.820;2023-05-20T05:00:09;10.18;;;1.10;;
72373;SDS011;60349;64.132;-21.820;2023-05-20T05:02:36;5.10;;;0.60;;
72373;SDS011;60349;64.132;-21.820;2023-05-20T05:05:02;13.32;;;0.93;;
72373;SDS011;60349;64.132;-21.820;2023-05-20T05:07:29;10.32;;;1.10;;
72373;SDS011;60349;64.132;-21.820;2023-05-20T05:09:56;10.60;;;1.08;;
72373;SDS011;60349;64.132;-21.820;2023-05-20T05:12:22;11.65;;;1.17;;
72373;SDS011;60349;64.132;-21.820;2023-05-20T05:14:48;8.13;;;0.70;;
72373;SDS011;60349;64.132;-21.820;2023-05-20T05:17:15;8.48;;;0.63;;
72373;SDS011;60349;64.132;-21.820;2023-05-20T05:19:41;8.38;;;0.70;;
72373;SDS011;60349;64.132;-21.820;2023-05-20T05:22:07;11.98;;;0.77;;
72373;SDS011;60349;64.132;-21.820;2023-05-20T05:24:33;9.65;;;1.02;;
72373;SDS011;60349;64.132;-21.820;2023-05-20T05:26:59;8.45;;;1.05;;
72373;SDS011;60349;64.132;-21.820;2023-05-20T05:29:25;13.07;;;1.40;;
72373;SDS011;60349;64.132;-21.820;2023-05-20T05:31:51;10.90;;;1.20;;
72373;SDS011;60349;64.132;-21.820;2023-05-20T05:34:17;11.30;;;0.80;;
72373;SDS011;60349;64.132;-21.820;2023-05-20T05:36:43;7.55;;;0.57;;
72373;SDS011;60349;64.132;-21.820;2023-05-20T05:39:10;11.63;;;1.05;;
72373;SDS011;60349;64.132;-21.820;2023-05-20T05:41:36;11.50;;;2.28;;
72373;SDS011;60349;64.132;-21.820;2023-05-20T05:44:03;12.30;;;1.45;;
72373;SDS011;60349;64.132;-21.820;2023-05-20T05:46:29;8.60;;;0.73;;
72373;SDS011;60349;64.132;-21.820;2023-05-20T05:48:55;9.80;;;1.08;;
72373;SDS011;60349;64.132;-21.820;2023-05-20T05:51:22;8.15;;;0.57;;
72373;SDS011;60349;64.132;-21.820;2023-05-20T05:53:51;10.80;;;1.70;;
72373;SDS011;60349;64.132;-21.820;2023-05-20T05:56:18;8.00;;;1.00;;
72373;SDS011;60349;64.132;-21.820;2023-05-20T05:58:44;6.47;;;0.70;;
72373;SDS011;60349;64.132;-21.820;2023-05-20T06:01:12;8.13;;;0.98;;
72373;SDS011;60349;64.132;-21.820;2023-05-20T06:03:38;7.47;;;0.50;;
72373;SDS011;60349;64.132;-21.820;2023-05-20T06:06:04;7.15;;;0.20;;
72373;SDS011;60349;64.132;-21.820;2023-05-20T06:08:30;7.00;;;0.75;;
72373;SDS011;60349;64.132;-21.820;2023-05-20T06:10:56;5.15;;;0.40;;
72373;SDS011;60349;64.132;-21.820;2023-05-20T06:13:22;7.45;;;0.68;;
72373;SDS011;60349;64.132;-21.820;2023-05-20T06:15:48;7.63;;;0.82;;
72373;SDS011;60349;64.132;-21.820;2023-05-20T06:18:15;9.85;;;0.55;;
72373;SDS011;60349;64.132;-21.820;2023-05-20T06:20:41;9.07;;;0.60;;
72373;SDS011;60349;64.132;-21.820;2023-05-20T06:23:07;9.88;;;0.85;;
72373;SDS011;60349;64.132;-21.820;2023-05-20T06:25:33;9.10;;;0.88;;
72373;SDS011;60349;64.132;-21.820;2023-05-20T06:27:59;6.25;;;0.50;;
72373;SDS011;60349;64.132;-21.820;2023-05-20T06:30:25;7.25;;;0.65;;
72373;SDS011;60349;64.132;-21.820;2023-05-20T06:32:51;7.95;;;0.88;;
72373;SDS011;60349;64.132;-21.820;2023-05-20T06:35:17;5.70;;;0.68;;
72373;SDS011;60349;64.132;-21.820;2023-05-20T06:37:44;8.63;;;0.80;;
72373;SDS011;60349;64.132;-21.820;2023-05-20T06:40:11;14.63;;;0.82;;
72373;SDS011;60349;64.132;-21.820;2023-05-20T06:42:37;6.68;;;0.68;;
72373;SDS011;60349;64.132;-21.820;2023-05-20T06:45:03;8.25;;;0.35;;
72373;SDS011;60349;64.132;-21.820;2023-05-20T06:47:29;8.85;;;0.57;;
72373;SDS011;60349;64.132;-21.820;2023-05-20T06:49:55;8.75;;;0.50;;
72373;SDS011;60349;64.132;-21.820;2023-05-20T06:52:21;8.20;;;0.52;;
72373;SDS011;60349;64.132;-21.820;2023-05-20T06:54:47;8.30;;;0.88;;
72373;SDS011;60349;64.132;-21.820;2023-05-20T06:57:13;5.15;;;0.50;;
72373;SDS011;60349;64.132;-21.820;2023-05-20T06:59:40;6.05;;;0.70;;
72373;SDS011;60349;64.132;-21.820;2023-05-20T07:02:06;5.03;;;0.50;;
72373;SDS011;60349;64.132;-21.820;2023-05-20T07:04:32;6.38;;;0.73;;
72373;SDS011;60349;64.132;-21.820;2023-05-20T07:06:58;7.40;;;0.47;;
72373;SDS011;60349;64.132;-21.820;2023-05-20T07:09:24;6.43;;;0.75;;
72373;SDS011;60349;64.132;-21.820;2023-05-20T07:11:50;5.60;;;0.30;;
72373;SDS011;60349;64.132;-21.820;2023-05-20T07:14:16;7.65;;;0.60;;
72373;SDS011;60349;64.132;-21.820;2023-05-20T07:16:42;7.18;;;0.57;;
72373;SDS011;60349;64.132;-21.820;2023-05-20T07:19:09;8.15;;;0.40;;
72373;SDS011;60349;64.132;-21.820;2023-05-20T07:21:35;7.43;;;0.52;;
72373;SDS011;60349;64.132;-21.820;2023-05-20T07:24:01;6.80;;;0.47;;
72373;SDS011;60349;64.132;-21.820;2023-05-20T07:26:27;6.93;;;0.50;;
72373;SDS011;60349;64.132;-21.820;2023-05-20T07:28:57;6.55;;;0.88;;
72373;SDS011;60349;64.132;-21.820;2023-05-20T07:31:23;10.27;;;0.50;;
72373;SDS011;60349;64.132;-21.820;2023-05-20T07:33:50;4.53;;;0.60;;
72373;SDS011;60349;64.132;-21.820;2023-05-20T07:36:17;4.90;;;0.35;;
72373;SDS011;60349;64.132;-21.820;2023-05-20T07:38:44;5.18;;;0.75;;
72373;SDS011;60349;64.132;-21.820;2023-05-20T07:41:10;5.93;;;0.50;;
72373;SDS011;60349;64.132;-21.820;2023-05-20T07:43:36;8.73;;;0.35;;
72373;SDS011;60349;64.132;-21.820;2023-05-20T07:46:02;5.25;;;0.30;;
72373;SDS011;60349;64.132;-21.820;2023-05-20T07:48:28;7.43;;;0.50;;
72373;SDS011;60349;64.132;-21.820;2023-05-20T07:50:54;5.18;;;0.30;;
72373;SDS011;60349;64.132;-21.820;2023-05-20T07:53:26;4.47;;;0.40;;
72373;SDS011;60349;64.132;-21.820;2023-05-20T07:55:52;9.70;;;0.52;;
72373;SDS011;60349;64.132;-21.820;2023-05-20T07:58:19;3.80;;;0.30;;
72373;SDS011;60349;64.132;-21.820;2023-05-20T08:00:45;9.40;;;0.40;;
72373;SDS011;60349;64.132;-21.820;2023-05-20T08:03:11;5.95;;;0.40;;
72373;SDS011;60349;64.132;-21.820;2023-05-20T08:05:39;4.28;;;0.22;;
72373;SDS011;60349;64.132;-21.820;2023-05-20T08:08:05;4.28;;;0.20;;
72373;SDS011;60349;64.132;-21.820;2023-05-20T08:10:32;4.63;;;0.30;;
72373;SDS011;60349;64.132;-21.820;2023-05-20T08:12:58;7.95;;;0.30;;
72373;SDS011;60349;64.132;-21.820;2023-05-20T08:15:24;5.55;;;0.30;;
72373;SDS011;60349;64.132;-21.820;2023-05-20T08:17:50;6.43;;;0.43;;
72373;SDS011;60349;64.132;-21.820;2023-05-20T08:20:16;4.55;;;0.13;;
72373;SDS011;60349;64.132;-21.820;2023-05-20T08:22:42;3.15;;;0.13;;
72373;SDS011;60349;64.132;-21.820;2023-05-20T08:25:09;5.43;;;0.40;;
72373;SDS011;60349;64.132;-21.820;2023-05-20T08:27:35;4.07;;;0.30;;
72373;SDS011;60349;64.132;-21.820;2023-05-20T08:30:02;5.07;;;0.38;;
72373;SDS011;60349;64.132;-21.820;2023-05-20T08:32:28;3.75;;;0.30;;
72373;SDS011;60349;64.132;-21.820;2023-05-20T08:34:55;4.28;;;0.30;;
72373;SDS011;60349;64.132;-21.820;2023-05-20T08:37:21;4.93;;;0.40;;
72373;SDS011;60349;64.132;-21.820;2023-05-20T08:39:47;8.63;;;0.50;;
72373;SDS011;60349;64.132;-21.820;2023-05-20T08:42:14;4.95;;;0.60;;
72373;SDS011;60349;64.132;-21.820;2023-05-20T08:44:40;6.32;;;0.50;;
72373;SDS011;60349;64.132;-21.820;2023-05-20T08:47:07;9.82;;;0.35;;
72373;SDS011;60349;64.132;-21.820;2023-05-20T08:49:33;7.00;;;1.08;;
72373;SDS011;60349;64.132;-21.820;2023-05-20T08:51:59;8.45;;;0.50;;
72373;SDS011;60349;64.132;-21.820;2023-05-20T08:54:28;6.68;;;0.50;;
72373;SDS011;60349;64.132;-21.820;2023-05-20T08:56:58;6.50;;;0.60;;
72373;SDS011;60349;64.132;-21.820;2023-05-20T08:59:25;8.52;;;1.15;;
72373;SDS011;60349;64.132;-21.820;2023-05-20T09:01:51;5.45;;;0.40;;
72373;SDS011;60349;64.132;-21.820;2023-05-20T09:04:17;5.60;;;0.55;;
72373;SDS011;60349;64.132;-21.820;2023-05-20T09:06:44;7.68;;;0.57;;
72373;SDS011;60349;64.132;-21.820;2023-05-20T09:09:11;5.80;;;0.45;;
72373;SDS011;60349;64.132;-21.820;2023-05-20T09:11:38;4.72;;;0.50;;
72373;SDS011;60349;64.132;-21.820;2023-05-20T09:14:05;4.25;;;0.28;;
72373;SDS011;60349;64.132;-21.820;2023-05-20T09:16:31;7.20;;;0.45;;
72373;SDS011;60349;64.132;-21.820;2023-05-20T09:18:58;6.63;;;0.40;;
72373;SDS011;60349;64.132;-21.820;2023-05-20T09:21:27;5.15;;;0.43;;
72373;SDS011;60349;64.132;-21.820;2023-05-20T09:23:54;8.07;;;0.57;;
72373;SDS011;60349;64.132;-21.820;2023-05-20T09:26:23;9.68;;;0.40;;
72373;SDS011;60349;64.132;-21.820;2023-05-20T09:28:49;9.32;;;1.25;;
72373;SDS011;60349;64.132;-21.820;2023-05-20T09:31:15;8.63;;;1.60;;
72373;SDS011;60349;64.132;-21.820;2023-05-20T09:33:42;12.52;;;1.48;;
72373;SDS011;60349;64.132;-21.820;2023-05-20T09:36:08;5.07;;;0.60;;
72373;SDS011;60349;64.132;-21.820;2023-05-20T09:38:36;6.68;;;0.88;;
72373;SDS011;60349;64.132;-21.820;2023-05-20T09:41:06;6.75;;;0.60;;
72373;SDS011;60349;64.132;-21.820;2023-05-20T09:43:33;4.43;;;0.90;;
72373;SDS011;60349;64.132;-21.820;2023-05-20T09:46:00;7.43;;;0.55;;
72373;SDS011;60349;64.132;-21.820;2023-05-20T09:48:27;4.88;;;0.30;;
72373;SDS011;60349;64.132;-21.820;2023-05-20T09:50:54;4.45;;;0.57;;
72373;SDS011;60349;64.132;-21.820;2023-05-20T09:53:22;6.90;;;0.40;;
72373;SDS011;60349;64.132;-21.820;2023-05-20T09:55:51;6.72;;;0.43;;
72373;SDS011;60349;64.132;-21.820;2023-05-20T09:58:18;3.92;;;0.30;;
72373;SDS011;60349;64.132;-21.820;2023-05-20T10:00:45;8.10;;;0.63;;
72373;SDS011;60349;64.132;-21.820;2023-05-20T10:03:11;4.03;;;0.40;;
72373;SDS011;60349;64.132;-21.820;2023-05-20T10:05:42;5.05;;;0.77;;
72373;SDS011;60349;64.132;-21.820;2023-05-20T10:13:26;4.90;;;0.40;;
72373;SDS011;60349;64.132;-21.820;2023-05-20T10:21:13;7.50;;;1.13;;
72373;SDS011;60349;64.132;-21.820;2023-05-20T10:23:40;6.00;;;0.80;;
72373;SDS011;60349;64.132;-21.820;2023-05-20T10:26:06;9.50;;;1.80;;
72373;SDS011;60349;64.132;-21.820;2023-05-20T10:28:33;8.10;;;1.50;;
72373;SDS011;60349;64.132;-21.820;2023-05-20T10:31:02;21.75;;;9.38;;
72373;SDS011;60349;64.132;-21.820;2023-05-20T10:33:43;27.00;;;12.60;;
72373;SDS011;60349;64.132;-21.820;2023-05-20T10:36:09;21.10;;;9.77;;
72373;SDS011;60349;64.132;-21.820;2023-05-20T10:38:35;14.77;;;6.57;;
72373;SDS011;60349;64.132;-21.820;2023-05-20T10:41:08;16.38;;;4.60;;
72373;SDS011;60349;64.132;-21.820;2023-05-20T10:43:38;13.25;;;4.57;;
72373;SDS011;60349;64.132;-21.820;2023-05-20T10:46:04;11.20;;;3.63;;
72373;SDS011;60349;64.132;-21.820;2023-05-20T10:48:31;11.88;;;3.50;;
72373;SDS011;60349;64.132;-21.820;2023-05-20T10:50:58;9.98;;;3.47;;
72373;SDS011;60349;64.132;-21.820;2023-05-20T10:53:27;45.85;;;26.00;;
72373;SDS011;60349;64.132;-21.820;2023-05-20T10:55:55;94.47;;;47.50;;
72373;SDS011;60349;64.132;-21.820;2023-05-20T10:58:22;34.70;;;18.67;;
72373;SDS011;60349;64.132;-21.820;2023-05-20T11:00:48;63.83;;;32.47;;
72373;SDS011;60349;64.132;-21.820;2023-05-20T11:03:15;93.40;;;43.58;;
72373;SDS011;60349;64.132;-21.820;2023-05-20T11:05:43;51.40;;;25.27;;
72373;SDS011;60349;64.132;-21.820;2023-05-20T11:08:10;42.35;;;20.55;;
72373;SDS011;60349;64.132;-21.820;2023-05-20T11:10:37;30.70;;;15.98;;
72373;SDS011;60349;64.132;-21.820;2023-05-20T11:13:03;31.50;;;13.65;;
72373;SDS011;60349;64.132;-21.820;2023-05-20T11:15:30;24.90;;;12.07;;
72373;SDS011;60349;64.132;-21.820;2023-05-20T11:17:59;22.13;;;9.20;;
72373;SDS011;60349;64.132;-21.820;2023-05-20T11:20:26;20.55;;;7.93;;
72373;SDS011;60349;64.132;-21.820;2023-05-20T11:22:53;18.20;;;7.20;;
72373;SDS011;60349;64.132;-21.820;2023-05-20T11:25:20;13.35;;;5.53;;
72373;SDS011;60349;64.132;-21.820;2023-05-20T11:27:48;10.52;;;4.57;;
72373;SDS011;60349;64.132;-21.820;2023-05-20T11:30:14;10.57;;;3.33;;
72373;SDS011;60349;64.132;-21.820;2023-05-20T11:32:43;13.90;;;2.88;;
72373;SDS011;60349;64.132;-21.820;2023-05-20T11:35:22;14.63;;;3.78;;
72373;SDS011;60349;64.132;-21.820;2023-05-20T11:37:56;9.68;;;2.78;;
72373;SDS011;60349;64.132;-21.820;2023-05-20T11:40:22;10.35;;;3.10;;
72373;SDS011;60349;64.132;-21.820;2023-05-20T11:42:51;10.98;;;1.92;;
72373;SDS011;60349;64.132;-21.820;2023-05-20T11:45:17;11.30;;;2.17;;
72373;SDS011;60349;64.132;-21.820;2023-05-20T11:47:43;6.50;;;1.13;;
72373;SDS011;60349;64.132;-21.820;2023-05-20T11:50:10;10.68;;;1.88;;
72373;SDS011;60349;64.132;-21.820;2023-05-20T11:52:36;7.50;;;1.38;;
72373;SDS011;60349;64.132;-21.820;2023-05-20T11:55:02;7.25;;;0.77;;
72373;SDS011;60349;64.132;-21.820;2023-05-20T11:57:28;10.02;;;0.70;;
72373;SDS011;60349;64.132;-21.820;2023-05-20T11:59:55;9.45;;;1.15;;
72373;SDS011;60349;64.132;-21.820;2023-05-20T12:02:21;16.77;;;5.65;;
72373;SDS011;60349;64.132;-21.820;2023-05-20T12:04:47;78.90;;;43.85;;
72373;SDS011;60349;64.132;-21.820;2023-05-20T12:07:13;57.67;;;29.67;;
72373;SDS011;60349;64.132;-21.820;2023-05-20T12:09:40;30.95;;;15.93;;
72373;SDS011;60349;64.132;-21.820;2023-05-20T12:12:06;34.05;;;17.02;;
72373;SDS011;60349;64.132;-21.820;2023-05-20T12:14:32;32.38;;;15.80;;
72373;SDS011;60349;64.132;-21.820;2023-05-20T12:16:58;30.75;;;16.38;;
72373;SDS011;60349;64.132;-21.820;2023-05-20T12:19:24;31.25;;;14.98;;
72373;SDS011;60349;64.132;-21.820;2023-05-20T12:21:50;28.77;;;13.75;;
72373;SDS011;60349;64.132;-21.820;2023-05-20T12:24:17;26.05;;;9.98;;
72373;SDS011;60349;64.132;-21.820;2023-05-20T12:26:43;18.75;;;7.63;;
72373;SDS011;60349;64.132;-21.820;2023-05-20T12:29:09;16.20;;;6.38;;
72373;SDS011;60349;64.132;-21.820;2023-05-20T12:31:35;18.45;;;6.75;;
72373;SDS011;60349;64.132;-21.820;2023-05-20T12:34:01;13.00;;;4.43;;
72373;SDS011;60349;64.132;-21.820;2023-05-20T12:36:28;13.45;;;3.92;;
72373;SDS011;60349;64.132;-21.820;2023-05-20T12:38:54;11.43;;;3.42;;
72373;SDS011;60349;64.132;-21.820;2023-05-20T12:41:20;11.32;;;3.47;;
72373;SDS011;60349;64.132;-21.820;2023-05-20T12:43:46;10.65;;;2.45;;
72373;SDS011;60349;64.132;-21.820;2023-05-20T12:46:12;11.88;;;2.03;;
72373;SDS011;60349;64.132;-21.820;2023-05-20T12:48:39;9.65;;;1.58;;
72373;SDS011;60349;64.132;-21.820;2023-05-20T12:51:05;7.97;;;1.25;;
72373;SDS011;60349;64.132;-21.820;2023-05-20T12:53:31;9.15;;;1.48;;
72373;SDS011;60349;64.132;-21.820;2023-05-20T12:55:57;7.25;;;1.27;;
72373;SDS011;60349;64.132;-21.820;2023-05-20T12:58:23;5.90;;;0.68;;
72373;SDS011;60349;64.132;-21.820;2023-05-20T13:00:49;7.10;;;1.10;;
72373;SDS011;60349;64.132;-21.820;2023-05-20T13:03:16;8.63;;;1.05;;
72373;SDS011;60349;64.132;-21.820;2023-05-20T13:05:42;9.13;;;0.70;;
72373;SDS011;60349;64.132;-21.820;2023-05-20T13:08:08;7.35;;;0.77;;
72373;SDS011;60349;64.132;-21.820;2023-05-20T13:10:36;8.05;;;0.68;;
72373;SDS011;60349;64.132;-21.820;2023-05-20T13:13:02;8.18;;;0.82;;
72373;SDS011;60349;64.132;-21.820;2023-05-20T13:15:28;10.85;;;0.98;;
72373;SDS011;60349;64.132;-21.820;2023-05-20T13:17:57;5.50;;;0.40;;
72373;SDS011;60349;64.132;-21.820;2023-05-20T13:20:25;2.95;;;0.20;;
72373;SDS011;60349;64.132;-21.820;2023-05-20T13:22:51;6.18;;;0.85;;
72373;SDS011;60349;64.132;-21.820;2023-05-20T13:25:17;5.22;;;0.38;;
72373;SDS011;60349;64.132;-21.820;2023-05-20T13:27:43;4.80;;;0.30;;
72373;SDS011;60349;64.132;-21.820;2023-05-20T13:30:09;5.47;;;0.50;;
72373;SDS011;60349;64.132;-21.820;2023-05-20T13:32:35;6.03;;;0.80;;
72373;SDS011;60349;64.132;-21.820;2023-05-20T13:35:01;4.13;;;0.30;;
72373;SDS011;60349;64.132;-21.820;2023-05-20T13:37:28;5.80;;;0.30;;
72373;SDS011;60349;64.132;-21.820;2023-05-20T13:39:54;6.15;;;0.50;;
72373;SDS011;60349;64.132;-21.820;2023-05-20T13:42:20;4.70;;;0.50;;
72373;SDS011;60349;64.132;-21.820;2023-05-20T13:44:46;5.85;;;0.65;;
72373;SDS011;60349;64.132;-21.820;2023-05-20T13:47:12;6.45;;;0.55;;
72373;SDS011;60349;64.132;-21.820;2023-05-20T13:49:38;4.15;;;0.40;;
72373;SDS011;60349;64.132;-21.820;2023-05-20T13:52:05;4.45;;;0.25;;
72373;SDS011;60349;64.132;-21.820;2023-05-20T13:54:31;5.53;;;0.40;;
72373;SDS011;60349;64.132;-21.820;2023-05-20T13:56:57;6.68;;;0.60;;
72373;SDS011;60349;64.132;-21.820;2023-05-20T13:59:23;8.02;;;0.30;;
72373;SDS011;60349;64.132;-21.820;2023-05-20T14:01:49;9.10;;;0.63;;
72373;SDS011;60349;64.132;-21.820;2023-05-20T14:04:16;6.95;;;0.70;;
72373;SDS011;60349;64.132;-21.820;2023-05-20T14:06:42;6.85;;;0.60;;
72373;SDS011;60349;64.132;-21.820;2023-05-20T14:09:08;8.85;;;0.60;;
72373;SDS011;60349;64.132;-21.820;2023-05-20T14:11:34;9.45;;;1.10;;
72373;SDS011;60349;64.132;-21.820;2023-05-20T14:14:01;7.07;;;0.75;;
72373;SDS011;60349;64.132;-21.820;2023-05-20T14:16:27;9.20;;;0.82;;
72373;SDS011;60349;64.132;-21.820;2023-05-20T14:18:53;8.32;;;0.45;;
72373;SDS011;60349;64.132;-21.820;2023-05-20T14:21:19;8.15;;;0.55;;
72373;SDS011;60349;64.132;-21.820;2023-05-20T14:23:45;10.13;;;0.70;;